Maran Hercules — SVCQ3 — position and weather

sailwx.info

Track history (hours):
 
Tides and Currents Weather Stations Pressure Air Temp Water Temp Dewpoint Dewpoint Depression Visibility Wind Speed Wind Dir Waves Ship Positions

Maran Hercules

Last reported at 2017-Nov-16 15:39 UTC. Time now 2017-Nov-23 22:02 UTC.
Position N 29°45' W 014°29'.

Length 274 m; draft 15.9 m.

Type: Tanker. MMSI: 241517000.

Date/timePositionNaut miles runAvg speedWind from/ knotsBaromVisibWave heightAir tempDewpointWater temp
2017-Nov-16 15:39N 29°45' W 014°29'213.0
2017-Nov-16 15:30N 29°44' W 014°31'1713.2
2017-Nov-16 14:15N 29°31' W 014°43'513.5
2017-Nov-16 13:51N 29°27' W 014°47'513.4
2017-Nov-16 13:30N 29°24' W 014°51'2513.5
2017-Nov-16 11:40N 29°05' W 015°09'613.4
2017-Nov-16 11:15N 29°01' W 015°13'313.2
2017-Nov-16 11:00N 28°58' W 015°16'713.3
2017-Nov-16 10:30N 28°53' W 015°21'713.4
2017-Nov-16 10:01N 28°48' W 015°26'714.4
2017-Nov-16 09:30N 28°43' W 015°31'714.3
2017-Nov-16 09:00N 28°38' W 015°36'713.4
2017-Nov-16 08:30N 28°33' W 015°41'612.3
2017-Nov-16 08:00N 28°28' W 015°46'612.0
2017-Nov-16 07:30N 28°23' W 015°50'612.1
2017-Nov-16 07:00N 28°18' W 015°54'610.7
2017-Nov-16 06:29N 28°14' W 015°59'3012.0
2017-Nov-16 04:00N 27°51' W 016°20'612.0
2017-Nov-16 03:29N 27°45' W 016°22'  
Track history (hours):
 
Tides and Currents Weather Stations Pressure Air Temp Water Temp Dewpoint Dewpoint Depression Visibility Wind Speed Wind Dir Waves Ship Positions

Maran Hercules

Last reported at 2017-Nov-16 15:39 UTC. Time now 2017-Nov-23 22:02 UTC.
Position N 29°45' W 014°29'.

Length 274 m; draft 15.9 m.

Type: Tanker. MMSI: 241517000.

Date/timePositionNaut miles runAvg speedWind from/ knotsBaromVisibWave heightAir tempDewpointWater temp
2017-Nov-16 15:39N 29°45' W 014°29'213.0
2017-Nov-16 15:30N 29°44' W 014°31'1713.2
2017-Nov-16 14:15N 29°31' W 014°43'513.5
2017-Nov-16 13:51N 29°27' W 014°47'513.4
2017-Nov-16 13:30N 29°24' W 014°51'2513.5
2017-Nov-16 11:40N 29°05' W 015°09'613.4
2017-Nov-16 11:15N 29°01' W 015°13'313.2
2017-Nov-16 11:00N 28°58' W 015°16'713.3
2017-Nov-16 10:30N 28°53' W 015°21'713.4
2017-Nov-16 10:01N 28°48' W 015°26'714.4
2017-Nov-16 09:30N 28°43' W 015°31'714.3
2017-Nov-16 09:00N 28°38' W 015°36'713.4
2017-Nov-16 08:30N 28°33' W 015°41'612.3
2017-Nov-16 08:00N 28°28' W 015°46'612.0
2017-Nov-16 07:30N 28°23' W 015°50'612.1
2017-Nov-16 07:00N 28°18' W 015°54'610.7
2017-Nov-16 06:29N 28°14' W 015°59'3012.0
2017-Nov-16 04:00N 27°51' W 016°20'612.0
2017-Nov-16 03:29N 27°45' W 016°22'  

Dump ship's entire track history